METAR Data
IDs: Format: Raw Decoded Include TAF

Data at: 1336 UTC 07 Jul 2020

KAIK 071335Z AUTO 07008KT 1 3/4SM RA BR SCT003 BKN025 OVC039 23/22 A3002 RMK AO2 P0030 T02270224
KAIK 071315Z AUTO 08008KT 1 1/2SM +RA BR SCT004 BKN015 OVC033 23/22 A3003 RMK AO2 P0013 T02270224
KAIK 071255Z AUTO 09010KT 1 1/2SM +RA BR OVC004 23/22 A3003 RMK AO2 LTG DSNT SE P0018 T02280224
KAIK 071235Z AUTO 09007KT 2 1/2SM RA BR OVC004 23/22 A3002 RMK AO2 P0010 T02270224
KAIK 071215Z AUTO 09007KT 3SM VCTSRA BR BKN004 OVC022 23/22 A3002 RMK AO2 LTG DSNT W P0004 T02270223
KAIK 071155Z AUTO 08007KT 3SM -RA BR SCT004 BKN018 OVC048 23/22 A3002 RMK AO2 P0011 T02270223 10228 20225 60066 70169
KAIK 071135Z AUTO 08007KT 4SM -RA BR BKN004 BKN013 OVC050 23/22 A3002 RMK AO2 P0006 T02270223
KAIK 071115Z AUTO 09006KT 7SM -RA BKN006 OVC011 23/22 A3001 RMK AO2 P0004 T02280223
KAIK 071055Z AUTO 09007KT 2 1/2SM RA BR OVC003 23/22 A3002 RMK AO2 VIS 2V3 1/2 P0036 T02270224
KAIK 071035Z AUTO 04005KT 2SM +RA BR OVC003 23/22 A3001 RMK AO2 LTG DSNT E P0020 T02270224
KAIK 071015Z AUTO 07007KT 4SM RA BR OVC003 23/22 A3001 RMK AO2 P0003 T02270223
KAIK 070955Z AUTO 07006KT 4SM -RA BR OVC003 23/22 A3001 RMK AO2 LTG DSNT SE P0012 T02270224
KAIK 070935Z AUTO 09005KT 3SM -RA BR OVC003 23/22 A3001 RMK AO2 P0010 T02270223
KAIK 070915Z AUTO 10004KT 4SM -RA BR OVC005 23/22 A3001 RMK AO2 LTG DSNT SE AND SW P0003 T02270223
KAIK 070855Z AUTO 09006KT 7SM -RA BR BKN005 OVC008 23/22 A3001 RMK AO2 P0003 T02260222 60005
KAIK 070835Z AUTO 08006KT 7SM -RA BR BKN005 BKN008 OVC015 23/22 A3001 RMK AO2 P0003 T02260222
KAIK 070815Z AUTO 08005KT 10SM -RA SCT003 SCT007 OVC017 23/22 A3001 RMK AO2 P0001 T02260222
KAIK 070755Z AUTO 08005KT 7SM SCT018 OVC024 23/22 A3001 RMK AO2 P0001 T02260222
KAIK 070735Z AUTO 09005KT 10SM SCT006 BKN017 OVC028 23/22 A3002 RMK AO2 P0001 T02260221
KAIK 070715Z AUTO 10005KT 10SM SCT008 BKN011 OVC028 23/22 A3002 RMK AO2 LTG DSNT SE P0001 T02260221
KAIK 070655Z AUTO 10004KT 5SM RA BR SCT007 OVC012 23/22 A3003 RMK AO2 P0001 T02260220
KAIK 070635Z AUTO 10007KT 10SM SCT005 OVC011 23/22 A3003 RMK AO2 T02260221
KAIK 070615Z AUTO 09006KT 10SM SCT005 OVC011 23/22 A3004 RMK AO2 T02270222
KAIK 070555Z AUTO 08008KT 10SM SCT003 OVC011 23/22 A3004 RMK AO2 LTG DSNT E T02280224 10230 20221 60005
KAIK 070535Z AUTO 08007KT 10SM SCT003 SCT008 OVC013 23/22 A3005 RMK AO2 LTG DSNT E T02280223
KAIK 070515Z AUTO 08006KT 10SM SCT005 BKN012 OVC017 23/22 A3005 RMK AO2 T02280224
KAIK 070455Z AUTO 08005KT 10SM SCT003 BKN014 OVC025 23/22 A3006 RMK AO2 T02280224
KAIK 070435Z AUTO 08006KT 10SM SCT003 BKN007 OVC024 23/22 A3006 RMK AO2 T02290224
KAIK 070415Z AUTO 08005KT 10SM SCT005 BKN008 OVC024 23/22 A3005 RMK AO2 T02280224
KAIK 070355Z AUTO 09006KT 10SM BKN005 OVC011 23/22 A3005 RMK AO2 T02280224
KAIK 070335Z AUTO 08005KT 10SM OVC005 23/22 A3004 RMK AO2 T02280223
KAIK 070315Z AUTO 10003KT 10SM OVC005 23/22 A3004 RMK AO2 T02290225
KAIK 070255Z AUTO 10005KT 10SM BKN007 23/22 A3004 RMK AO2 T02280223 60005
KAIK 070235Z AUTO 11004KT 10SM OVC007 23/22 A3005 RMK AO2 T02280223
KAIK 070215Z AUTO 10004KT 10SM BKN002 OVC007 22/22 A3005 RMK AO2 T02230219
KAIK 070155Z AUTO 06005KT 10SM OVC002 22/22 A3005 RMK AO2 P0001 T02220218
KAIK 070135Z AUTO 05005KT 10SM OVC002 22/22 A3005 RMK AO2 P0001 T02210218
KAIK 070115Z AUTO 06007KT 10SM OVC002 22/22 A3005 RMK AO2 LTG DSNT E P0001 T02220219
KAIK 070055Z AUTO 06006KT 7SM -DZ BKN002 OVC120 22/22 A3005 RMK AO2 LTG DSNT SE P0004 T02230220
KAIK 070035Z AUTO 05005KT 7SM -RA SCT002 SCT023 BKN110 22/22 A3005 RMK AO2 P0004 T02250221
KAIK 070015Z AUTO 09003KT 3SM -RA BR SCT025 SCT055 OVC110 23/22 A3006 RMK AO2 P0004 T02260221
KAIK 062355Z AUTO 13004KT 4SM RA BR SCT025 SCT060 BKN110 23/22 A3006 RMK AO2 P0004 T02250220 10316 20223 403160218 60098
KAIK 062335Z AUTO 18003KT 7SM -RA BKN100 OVC120 22/22 A3006 RMK AO2 LTG DSNT SE P0002 T02250219
KAIK 062315Z AUTO 11003KT 5SM -RA BR BKN100 OVC120 23/22 A3005 RMK AO2 LTG DSNT E P0001 T02250219
KAIK 062255Z AUTO 10003KT 7SM -RA SCT065 SCT085 BKN120 22/22 A3005 RMK AO2 LTG DSNT E P0009 T02240217
KAIK 062235Z AUTO 07005KT 7SM -RA SCT006 BKN070 OVC100 22/22 A3006 RMK AO2 LTG DSNT SE AND W P0009 T02250218
KAIK 062215Z AUTO 08006KT 2 1/2SM +VCTSRA BR BKN006 BKN014 OVC021 23/22 A3007 RMK AO2 LTG DSNT N AND NE P0005 T02260220
KAIK 062155Z AUTO 07005KT 2 1/2SM -TSRA BR BKN012 OVC020 23/22 A3008 RMK AO2 LTG DSNT ALQDS P0083 T02290222
KAIK 062135Z AUTO 14009KT 4SM TSRA BR BKN010 BKN014 OVC025 23/22 A3007 RMK AO2 LTG DSNT ALQDS P0072 T02330219
KAIK 062115Z AUTO 01006KT 1 1/2SM +TSRA BR OVC012 23/23 A3005 RMK AO2 LTG DSNT ALQDS P0054 T02340227
KAIK 062055Z AUTO 18003KT 10SM -TSRA SCT026 OVC041 25/23 A3004 RMK AO2 LTG DSNT NE AND SE P0001 T02490235 60001
KAIK 062035Z AUTO 03006KT 10SM BKN039 OVC048 26/24 A3002 RMK AO2 LTG DSNT S AND W T02560239
KAIK 062015Z AUTO 05005KT 10SM BKN039 OVC048 26/23 A3003 RMK AO2 LTG DSNT E THRU SW T02640234
KAIK 061955Z AUTO 28005KT 10SM -RA BKN041 OVC048 27/24 A3002 RMK AO2 LTG DSNT N E AND S T02660242
KAIK 061935Z AUTO 23007KT 200V260 10SM VCTS SCT040 BKN046 OVC075 30/22 A3002 RMK AO2 LTG DSNT NE THRU S T03030220
KAIK 061915Z AUTO 17005KT 10SM SCT038 BKN046 BKN050 31/21 A3002 RMK AO2 LTG DSNT N AND NE T03090207
KAIK 061855Z AUTO 05005KT 10SM SCT036 SCT043 BKN095 30/22 A3002 RMK AO2 LTG DSNT NE T03030221
KAIK 061835Z AUTO 15006KT 10SM SCT034 BKN040 BKN075 30/22 A3003 RMK AO2 LTG DSNT N SE AND S T03040218
KAIK 061815Z AUTO 13006KT 10SM SCT036 31/22 A3003 RMK AO2 LTG DSNT ALQDS T03090215
KAIK 061755Z AUTO 13007KT 10SM SCT031 SCT110 30/21 A3004 RMK AO2 LTG DSNT SE T03020214 10315 20230
KAIK 061735Z AUTO 19005KT 10SM SCT031 SCT055 BKN110 30/22 A3004 RMK AO2 LTG DSNT SE AND SW T02990223
KAIK 061715Z AUTO 19007KT 7SM HZ SCT031 BKN055 OVC085 28/23 A3005 RMK AO2 LTG DSNT E T02850228
KAIK 061655Z AUTO 12008KT 090V160 10SM SCT030 BKN047 BKN060 30/22 A3006 RMK AO2 LTG DSNT E AND S T03010220
KAIK 061635Z AUTO 13005KT 10SM SCT028 SCT060 SCT070 30/22 A3007 RMK AO2 LTG DSNT S T03040224
KAIK 061615Z AUTO 17008KT 10SM SCT022 SCT060 30/22 A3008 RMK AO2 T02960218
KAIK 061555Z AUTO 18006KT 10SM BKN022 29/23 A3008 RMK AO2 LTG DSNT E AND S T02950226
KAIK 061535Z AUTO 15004KT 10SM SCT019 SCT027 BKN120 28/22 A3008 RMK AO2 LTG DSNT S T02780222
KAIK 061515Z AUTO 12007KT 080V140 10SM SCT017 BKN120 28/23 A3008 RMK AO2 T02820226
KAIK 061455Z AUTO 14005KT 10SM SCT015 SCT095 28/22 A3008 RMK AO2 LTG DSNT E T02760224
KAIK 061435Z AUTO 12006KT 10SM SCT095 26/22 A3008 RMK AO2 T02650223
KAIK 061415Z AUTO 11006KT 10SM SCT095 26/22 A3007 RMK AO2 T02630221
KAIK 061355Z AUTO 14006KT 10SM SCT050 OVC095 25/22 A3007 RMK AO2 T02540223
KAIK 061335Z AUTO 12006KT 10SM SCT007 BKN034 OVC060 24/22 A3007 RMK AO2 T02420222
KAIK 061315Z AUTO 12006KT 10SM BKN007 OVC050 24/22 A3007 RMK AO2 T02380223
KAIK 061255Z AUTO 13004KT 10SM BKN047 BKN055 OVC070 24/22 A3006 RMK AO2 T02370220
KAIK 061235Z AUTO 11006KT 10SM SCT006 BKN080 OVC090 24/22 A3006 RMK AO2 T02380220
KAIK 061215Z AUTO 14004KT 10SM SCT004 SCT080 24/22 A3005 RMK AO2 T02350221
KAIK 061155Z AUTO 11004KT 10SM BKN004 23/22 A3005 RMK AO2 T02310220 10231 20218
KAIK 061135Z AUTO 14006KT 10SM OVC004 22/22 A3005 RMK AO2 T02250218
KAIK 061115Z AUTO 15005KT 10SM OVC004 22/22 A3004 RMK AO2 T02240217
KAIK 061055Z AUTO 13006KT 10SM OVC004 22/22 A3003 RMK AO2 T02240217
KAIK 061035Z AUTO 10005KT 10SM OVC004 22/22 A3003 RMK AO2 T02220216
KAIK 061015Z AUTO 09004KT 10SM BKN004 BKN055 22/21 A3002 RMK AO2 T02210215
KAIK 060955Z AUTO 09005KT 10SM SCT055 22/22 A3001 RMK AO2 T02230215
KAIK 060935Z AUTO 13004KT 10SM SCT005 SCT070 SCT080 22/22 A3000 RMK AO2 T02230215
KAIK 060915Z AUTO 12005KT 10SM SCT007 BKN070 OVC080 22/21 A3000 RMK AO2 T02230214
KAIK 060855Z AUTO 08004KT 10SM BKN007 BKN037 OVC070 22/21 A3001 RMK AO2 T02210212
KAIK 060835Z AUTO 08004KT 10SM BKN007 BKN037 BKN065 22/21 A3001 RMK AO2 T02200211
KAIK 060815Z AUTO 08004KT 10SM BKN009 BKN065 22/21 A3000 RMK AO2 T02190210
KAIK 060755Z AUTO 10004KT 10SM SCT009 SCT075 22/21 A3000 RMK AO2 T02200210
KAIK 060735Z AUTO 07005KT 10SM SCT075 22/21 A3000 RMK AO2 T02190208
KAIK 060715Z AUTO 08005KT 10SM SCT017 SCT023 22/21 A3000 RMK AO2 T02220208
KAIK 060655Z AUTO 09005KT 10SM BKN017 BKN023 23/21 A3001 RMK AO2 T02250209
KAIK 060635Z AUTO 09005KT 10SM CLR 22/20 A3001 RMK AO2 T02210204
KAIK 060615Z AUTO 08005KT 10SM CLR 22/20 A3001 RMK AO2 T02190201
KAIK 060555Z AUTO 07005KT 10SM CLR 22/20 A3001 RMK AO2 T02200200 10297 20219
KAIK 060535Z AUTO 07003KT 10SM CLR 23/20 A3002 RMK AO2 LTG DSNT S T02280200
KAIK 060515Z AUTO 10003KT 10SM CLR 24/20 A3003 RMK AO2 T02370202
KAIK 060455Z AUTO 10003KT 10SM CLR 23/20 A3003 RMK AO2 T02320199
KAIK 060435Z AUTO 08004KT 10SM CLR 23/20 A3003 RMK AO2 T02350197
KAIK 060415Z AUTO 09003KT 10SM CLR 23/20 A3003 RMK AO2 T02320196
KAIK 060355Z AUTO 12003KT 10SM CLR 24/20 A3002 RMK AO2 T02430197
KAIK 060335Z AUTO 09003KT 10SM CLR 24/19 A3002 RMK AO2 T02450195
KAIK 060315Z AUTO 13004KT 10SM CLR 25/19 A3001 RMK AO2 T02470195
KAIK 060255Z AUTO 14004KT 10SM CLR 25/20 A3001 RMK AO2 T02520195
KAIK 060235Z AUTO 14004KT 10SM CLR 25/20 A3001 RMK AO2 T02540196
KAIK 060215Z AUTO 14004KT 10SM CLR 26/19 A3001 RMK AO2 T02590194
KAIK 060155Z AUTO 15006KT 10SM CLR 26/19 A3000 RMK AO2 LTG DSNT SE T02640192